Kalar Kahar Weather



Kalar Kahar's Current Weather

Temprature 22.496o few clouds

few clouds

Rain: 0 %

Min Temprature22.496o
Max Temprature22.496o
Humidity49
Wind Speed1.81 m/h
Sun Rise05:33:06
Sun Set18:42:32
Current Time: 21-Apr-2019 05:53:18
Lat/Lon: 32.78, 72.7




Kalar Kahar's Geo Location



Kalar Kahar's Weather Forecast

Time Overall Temp Min Temp Max Temp Humidity Wind Speed Rain
21-Apr-2019 (Sun)
08:00:00 clear sky 26.080 26.079 26.080 42 2.4 m/h 0 %
11:00:00 clear sky 30.050 30.050 30.050 30 2.25 m/h 0 %
14:00:00 clear sky 32.150 32.150 32.150 25 1.25 m/h 0 %
17:00:00 clear sky 32.350 32.350 32.350 24 1.4 m/h 0 %
20:00:00 clear sky 28.450 28.450 28.450 34 1.77 m/h 0 %
23:00:00 clear sky 26.820 26.820 26.820 35 2.27 m/h 0 %
22-Apr-2019 (Mon)
02:00:00 clear sky 25.070 25.070 25.070 37 1.98 m/h 0 %
05:00:00 clear sky 23.584 23.584 23.584 40 2.43 m/h 0 %
08:00:00 clear sky 26.766 26.766 26.766 35 2.37 m/h 0 %
11:00:00 clear sky 31.420 31.420 31.420 25 3.1 m/h 0 %
14:00:00 clear sky 33.815 33.815 33.815 22 2.27 m/h 0 %
17:00:00 clear sky 34.031 34.031 34.031 21 2.05 m/h 0 %
20:00:00 clear sky 29.450 29.450 29.450 30 2.3 m/h 0 %
23:00:00 clear sky 27.396 27.396 27.396 35 1.6 m/h 0 %
23-Apr-2019 (Tue)
02:00:00 few clouds 26.377 26.377 26.377 33 2.6 m/h 0 %
05:00:00 broken clouds 24.516 24.516 24.516 36 2.35 m/h 0 %
08:00:00 overcast clouds 26.907 26.907 26.907 31 2.58 m/h 0 %
11:00:00 overcast clouds 30.550 30.550 30.550 22 3.43 m/h 0 %
14:00:00 scattered clouds 34.750 34.750 34.750 18 1.89 m/h 0 %
17:00:00 scattered clouds 35.050 35.050 35.050 18 1.44 m/h 0 %
20:00:00 overcast clouds 30.428 30.428 30.428 26 2.08 m/h 0 %
23:00:00 broken clouds 29.250 29.250 29.250 25 3.09 m/h 0 %
24-Apr-2019 (Wed)
02:00:00 overcast clouds 26.182 26.182 26.182 36 1.68 m/h 0 %
05:00:00 overcast clouds 25.844 25.844 25.844 36 2.19 m/h 0 %
08:00:00 broken clouds 28.250 28.250 28.250 32 3.67 m/h 0 %
11:00:00 broken clouds 33.808 33.808 33.808 19 4.72 m/h 0 %
14:00:00 broken clouds 37.550 37.550 37.550 13 3.01 m/h 0 %
17:00:00 overcast clouds 31.350 31.350 31.350 28 9.57 m/h 0 %
20:00:00 overcast clouds 27.155 27.155 27.155 39 4.66 m/h 0 %
23:00:00 overcast clouds 26.045 26.045 26.045 44 6.8 m/h 0 %
25-Apr-2019 (Thu)
02:00:00 overcast clouds 24.850 24.850 24.850 48 2.53 m/h 0 %
05:00:00 overcast clouds 22.832 22.832 22.832 55 2.52 m/h 0 %
08:00:00 scattered clouds 25.520 25.520 25.520 46 3.16 m/h 0 %
11:00:00 few clouds 31.390 31.390 31.390 29 3.75 m/h 0 %
14:00:00 clear sky 34.650 34.650 34.650 19 2.51 m/h 0 %
17:00:00 light rain 34.111 34.111 34.111 17 3.41 m/h 6 %
20:00:00 light rain 28.525 28.525 28.525 34 0.52 m/h 19 %
23:00:00 light rain 27.843 27.843 27.843 29 2.13 m/h 44 %
26-Apr-2019 (Fri)
02:00:00 light rain 24.832 24.832 24.832 35 2.03 m/h 63 %
05:00:00 scattered clouds 23.826 23.826 23.826 35 1.38 m/h 0 %

Famous Cities (60)